sensor_id;sensor_type;location;lat;lon;timestamp;P1;durP1;ratioP1;P2;durP2;ratioP2
17091;SDS011;8661;45.700;4.880;2023-04-29T00:00:08;0.00;;;0.00;;
17091;SDS011;8661;45.700;4.880;2023-04-29T00:02:35;0.00;;;0.00;;
17091;SDS011;8661;45.700;4.880;2023-04-29T00:05:02;0.00;;;0.00;;
17091;SDS011;8661;45.700;4.880;2023-04-29T00:07:30;0.00;;;0.00;;
17091;SDS011;8661;45.700;4.880;2023-04-29T00:09:57;0.03;;;0.03;;
17091;SDS011;8661;45.700;4.880;2023-04-29T00:12:24;0.07;;;0.07;;
17091;SDS011;8661;45.700;4.880;2023-04-29T00:14:52;0.00;;;0.00;;
17091;SDS011;8661;45.700;4.880;2023-04-29T00:17:20;0.00;;;0.00;;
17091;SDS011;8661;45.700;4.880;2023-04-29T00:19:47;0.00;;;0.00;;
17091;SDS011;8661;45.700;4.880;2023-04-29T00:22:14;0.00;;;0.00;;
17091;SDS011;8661;45.700;4.880;2023-04-29T00:24:41;0.00;;;0.00;;
17091;SDS011;8661;45.700;4.880;2023-04-29T00:27:08;0.10;;;0.10;;
17091;SDS011;8661;45.700;4.880;2023-04-29T00:29:35;0.00;;;0.00;;
17091;SDS011;8661;45.700;4.880;2023-04-29T00:32:02;0.10;;;0.10;;
17091;SDS011;8661;45.700;4.880;2023-04-29T00:34:31;9.37;;;3.70;;
17091;SDS011;8661;45.700;4.880;2023-04-29T00:36:58;5.03;;;3.50;;
17091;SDS011;8661;45.700;4.880;2023-04-29T00:39:25;5.93;;;3.40;;
17091;SDS011;8661;45.700;4.880;2023-04-29T00:41:52;3.80;;;3.00;;
17091;SDS011;8661;45.700;4.880;2023-04-29T00:44:19;6.73;;;3.70;;
17091;SDS011;8661;45.700;4.880;2023-04-29T00:46:46;4.23;;;3.20;;
17091;SDS011;8661;45.700;4.880;2023-04-29T00:49:13;5.93;;;3.03;;
17091;SDS011;8661;45.700;4.880;2023-04-29T00:51:41;4.13;;;2.70;;
17091;SDS011;8661;45.700;4.880;2023-04-29T00:54:10;5.17;;;2.83;;
17091;SDS011;8661;45.700;4.880;2023-04-29T00:56:37;6.23;;;2.90;;
17091;SDS011;8661;45.700;4.880;2023-04-29T00:59:06;3.10;;;2.37;;
17091;SDS011;8661;45.700;4.880;2023-04-29T01:01:35;5.43;;;2.77;;
17091;SDS011;8661;45.700;4.880;2023-04-29T01:04:03;4.23;;;2.53;;
17091;SDS011;8661;45.700;4.880;2023-04-29T01:06:33;3.33;;;2.50;;
17091;SDS011;8661;45.700;4.880;2023-04-29T01:09:17;8.10;;;3.20;;
17091;SDS011;8661;45.700;4.880;2023-04-29T01:11:54;5.07;;;2.70;;
17091;SDS011;8661;45.700;4.880;2023-04-29T01:14:31;4.10;;;2.87;;
17091;SDS011;8661;45.700;4.880;2023-04-29T01:17:00;3.17;;;2.47;;
17091;SDS011;8661;45.700;4.880;2023-04-29T01:19:36;6.53;;;3.37;;
17091;SDS011;8661;45.700;4.880;2023-04-29T01:22:09;3.80;;;2.63;;
17091;SDS011;8661;45.700;4.880;2023-04-29T01:24:38;7.93;;;2.70;;
17091;SDS011;8661;45.700;4.880;2023-04-29T01:27:09;4.60;;;2.70;;
17091;SDS011;8661;45.700;4.880;2023-04-29T01:29:46;7.87;;;2.60;;
17091;SDS011;8661;45.700;4.880;2023-04-29T01:32:23;5.63;;;2.80;;
17091;SDS011;8661;45.700;4.880;2023-04-29T01:34:58;5.73;;;2.73;;
17091;SDS011;8661;45.700;4.880;2023-04-29T01:37:32;6.13;;;2.87;;
17091;SDS011;8661;45.700;4.880;2023-04-29T01:40:11;4.23;;;2.80;;
17091;SDS011;8661;45.700;4.880;2023-04-29T01:42:44;8.33;;;3.73;;
17091;SDS011;8661;45.700;4.880;2023-04-29T01:45:13;4.73;;;3.37;;
17091;SDS011;8661;45.700;4.880;2023-04-29T01:47:42;5.97;;;3.37;;
17091;SDS011;8661;45.700;4.880;2023-04-29T01:50:10;9.70;;;3.50;;
17091;SDS011;8661;45.700;4.880;2023-04-29T01:52:37;8.17;;;3.90;;
17091;SDS011;8661;45.700;4.880;2023-04-29T01:55:04;12.07;;;4.30;;
17091;SDS011;8661;45.700;4.880;2023-04-29T01:57:33;9.67;;;4.70;;
17091;SDS011;8661;45.700;4.880;2023-04-29T02:00:00;10.90;;;4.40;;
17091;SDS011;8661;45.700;4.880;2023-04-29T02:02:28;11.43;;;4.70;;
17091;SDS011;8661;45.700;4.880;2023-04-29T02:04:55;8.03;;;4.70;;
17091;SDS011;8661;45.700;4.880;2023-04-29T02:07:22;10.90;;;4.50;;
17091;SDS011;8661;45.700;4.880;2023-04-29T02:09:49;10.63;;;4.23;;
17091;SDS011;8661;45.700;4.880;2023-04-29T02:12:16;1.23;;;0.83;;
17091;SDS011;8661;45.700;4.880;2023-04-29T02:14:45;0.20;;;0.20;;
17091;SDS011;8661;45.700;4.880;2023-04-29T02:17:12;0.20;;;0.20;;
17091;SDS011;8661;45.700;4.880;2023-04-29T02:19:39;0.30;;;0.30;;
17091;SDS011;8661;45.700;4.880;2023-04-29T02:22:06;0.20;;;0.20;;
17091;SDS011;8661;45.700;4.880;2023-04-29T02:24:35;0.20;;;0.20;;
17091;SDS011;8661;45.700;4.880;2023-04-29T02:27:01;0.03;;;0.03;;
17091;SDS011;8661;45.700;4.880;2023-04-29T02:29:30;0.00;;;0.00;;
17091;SDS011;8661;45.700;4.880;2023-04-29T02:31:58;0.00;;;0.00;;
17091;SDS011;8661;45.700;4.880;2023-04-29T02:34:26;0.10;;;0.10;;
17091;SDS011;8661;45.700;4.880;2023-04-29T02:36:53;0.00;;;0.00;;
17091;SDS011;8661;45.700;4.880;2023-04-29T02:39:20;0.00;;;0.00;;
17091;SDS011;8661;45.700;4.880;2023-04-29T02:41:47;0.17;;;0.17;;
17091;SDS011;8661;45.700;4.880;2023-04-29T02:44:13;0.00;;;0.00;;
17091;SDS011;8661;45.700;4.880;2023-04-29T02:46:40;0.00;;;0.00;;
17091;SDS011;8661;45.700;4.880;2023-04-29T02:49:11;0.00;;;0.00;;
17091;SDS011;8661;45.700;4.880;2023-04-29T02:51:38;0.00;;;0.00;;
17091;SDS011;8661;45.700;4.880;2023-04-29T02:54:06;0.00;;;0.00;;
17091;SDS011;8661;45.700;4.880;2023-04-29T02:56:33;0.00;;;0.00;;
17091;SDS011;8661;45.700;4.880;2023-04-29T02:59:00;0.10;;;0.10;;
17091;SDS011;8661;45.700;4.880;2023-04-29T03:01:27;0.10;;;0.10;;
17091;SDS011;8661;45.700;4.880;2023-04-29T03:03:54;0.10;;;0.10;;
17091;SDS011;8661;45.700;4.880;2023-04-29T03:06:22;0.30;;;0.30;;
17091;SDS011;8661;45.700;4.880;2023-04-29T03:08:50;0.00;;;0.00;;
17091;SDS011;8661;45.700;4.880;2023-04-29T03:11:17;0.10;;;0.10;;
17091;SDS011;8661;45.700;4.880;2023-04-29T03:13:43;0.10;;;0.10;;
17091;SDS011;8661;45.700;4.880;2023-04-29T03:16:11;0.10;;;0.10;;
17091;SDS011;8661;45.700;4.880;2023-04-29T03:18:40;0.00;;;0.00;;
17091;SDS011;8661;45.700;4.880;2023-04-29T03:21:07;0.00;;;0.00;;
17091;SDS011;8661;45.700;4.880;2023-04-29T03:23:36;0.10;;;0.10;;
17091;SDS011;8661;45.700;4.880;2023-04-29T03:26:04;0.10;;;0.10;;
17091;SDS011;8661;45.700;4.880;2023-04-29T03:28:31;0.00;;;0.00;;
17091;SDS011;8661;45.700;4.880;2023-04-29T03:30:58;0.10;;;0.10;;
17091;SDS011;8661;45.700;4.880;2023-04-29T03:33:25;0.10;;;0.10;;
17091;SDS011;8661;45.700;4.880;2023-04-29T03:35:51;0.10;;;0.10;;
17091;SDS011;8661;45.700;4.880;2023-04-29T03:38:18;0.00;;;0.00;;
17091;SDS011;8661;45.700;4.880;2023-04-29T03:40:47;0.00;;;0.00;;
17091;SDS011;8661;45.700;4.880;2023-04-29T03:43:14;0.10;;;0.10;;
17091;SDS011;8661;45.700;4.880;2023-04-29T03:45:40;0.00;;;0.00;;
17091;SDS011;8661;45.700;4.880;2023-04-29T03:48:07;0.07;;;0.07;;
17091;SDS011;8661;45.700;4.880;2023-04-29T03:50:34;0.00;;;0.00;;
17091;SDS011;8661;45.700;4.880;2023-04-29T03:53:01;0.00;;;0.00;;
17091;SDS011;8661;45.700;4.880;2023-04-29T03:55:28;0.00;;;0.00;;
17091;SDS011;8661;45.700;4.880;2023-04-29T03:57:57;0.03;;;0.03;;
17091;SDS011;8661;45.700;4.880;2023-04-29T04:00:23;0.10;;;0.10;;
17091;SDS011;8661;45.700;4.880;2023-04-29T04:02:51;0.10;;;0.10;;
17091;SDS011;8661;45.700;4.880;2023-04-29T04:05:18;0.07;;;0.07;;
17091;SDS011;8661;45.700;4.880;2023-04-29T04:07:45;0.10;;;0.10;;
17091;SDS011;8661;45.700;4.880;2023-04-29T04:10:12;0.10;;;0.10;;
17091;SDS011;8661;45.700;4.880;2023-04-29T04:12:39;0.10;;;0.10;;
17091;SDS011;8661;45.700;4.880;2023-04-29T04:15:08;0.10;;;0.10;;
17091;SDS011;8661;45.700;4.880;2023-04-29T04:17:35;0.10;;;0.10;;
17091;SDS011;8661;45.700;4.880;2023-04-29T04:20:02;0.10;;;0.10;;
17091;SDS011;8661;45.700;4.880;2023-04-29T04:22:29;0.00;;;0.00;;
17091;SDS011;8661;45.700;4.880;2023-04-29T04:24:56;0.10;;;0.10;;
17091;SDS011;8661;45.700;4.880;2023-04-29T04:27:23;0.00;;;0.00;;
17091;SDS011;8661;45.700;4.880;2023-04-29T04:29:52;0.10;;;0.10;;
17091;SDS011;8661;45.700;4.880;2023-04-29T04:32:20;0.10;;;0.10;;
17091;SDS011;8661;45.700;4.880;2023-04-29T04:34:48;0.00;;;0.00;;
17091;SDS011;8661;45.700;4.880;2023-04-29T04:37:15;0.00;;;0.00;;
17091;SDS011;8661;45.700;4.880;2023-04-29T04:39:42;0.00;;;0.00;;
17091;SDS011;8661;45.700;4.880;2023-04-29T04:42:09;0.10;;;0.10;;
17091;SDS011;8661;45.700;4.880;2023-04-29T04:44:36;0.10;;;0.10;;
17091;SDS011;8661;45.700;4.880;2023-04-29T04:47:03;0.10;;;0.10;;
17091;SDS011;8661;45.700;4.880;2023-04-29T04:49:32;0.03;;;0.03;;
17091;SDS011;8661;45.700;4.880;2023-04-29T04:51:58;0.00;;;0.00;;
17091;SDS011;8661;45.700;4.880;2023-04-29T04:54:25;0.00;;;0.00;;
17091;SDS011;8661;45.700;4.880;2023-04-29T04:56:52;0.07;;;0.07;;
17091;SDS011;8661;45.700;4.880;2023-04-29T04:59:19;0.10;;;0.10;;
17091;SDS011;8661;45.700;4.880;2023-04-29T05:01:46;0.10;;;0.10;;
17091;SDS011;8661;45.700;4.880;2023-04-29T05:04:16;0.10;;;0.10;;
17091;SDS011;8661;45.700;4.880;2023-04-29T05:06:44;0.00;;;0.00;;
17091;SDS011;8661;45.700;4.880;2023-04-29T05:09:11;0.10;;;0.10;;
17091;SDS011;8661;45.700;4.880;2023-04-29T05:11:38;0.10;;;0.10;;
17091;SDS011;8661;45.700;4.880;2023-04-29T05:14:06;0.00;;;0.00;;
17091;SDS011;8661;45.700;4.880;2023-04-29T05:16:32;0.10;;;0.10;;
17091;SDS011;8661;45.700;4.880;2023-04-29T05:18:59;0.10;;;0.10;;
17091;SDS011;8661;45.700;4.880;2023-04-29T05:21:26;0.10;;;0.10;;
17091;SDS011;8661;45.700;4.880;2023-04-29T05:23:54;0.10;;;0.10;;
17091;SDS011;8661;45.700;4.880;2023-04-29T05:26:21;0.10;;;0.10;;
17091;SDS011;8661;45.700;4.880;2023-04-29T05:28:48;0.00;;;0.00;;
17091;SDS011;8661;45.700;4.880;2023-04-29T05:31:15;0.10;;;0.10;;
17091;SDS011;8661;45.700;4.880;2023-04-29T05:33:42;0.10;;;0.10;;
17091;SDS011;8661;45.700;4.880;2023-04-29T05:36:09;0.10;;;0.10;;
17091;SDS011;8661;45.700;4.880;2023-04-29T05:38:36;0.10;;;0.10;;
17091;SDS011;8661;45.700;4.880;2023-04-29T05:41:04;0.10;;;0.10;;
17091;SDS011;8661;45.700;4.880;2023-04-29T05:43:31;0.10;;;0.10;;
17091;SDS011;8661;45.700;4.880;2023-04-29T05:45:58;0.10;;;0.10;;
17091;SDS011;8661;45.700;4.880;2023-04-29T05:48:25;0.00;;;0.00;;
17091;SDS011;8661;45.700;4.880;2023-04-29T05:50:53;0.10;;;0.10;;
17091;SDS011;8661;45.700;4.880;2023-04-29T05:53:20;0.10;;;0.10;;
17091;SDS011;8661;45.700;4.880;2023-04-29T05:55:46;0.10;;;0.10;;
17091;SDS011;8661;45.700;4.880;2023-04-29T05:58:16;0.10;;;0.10;;
17091;SDS011;8661;45.700;4.880;2023-04-29T06:00:43;0.10;;;0.10;;
17091;SDS011;8661;45.700;4.880;2023-04-29T06:03:10;0.00;;;0.00;;
17091;SDS011;8661;45.700;4.880;2023-04-29T06:05:37;0.00;;;0.00;;
17091;SDS011;8661;45.700;4.880;2023-04-29T06:08:04;0.10;;;0.10;;
17091;SDS011;8661;45.700;4.880;2023-04-29T06:10:31;0.10;;;0.10;;
17091;SDS011;8661;45.700;4.880;2023-04-29T06:12:58;0.00;;;0.00;;
17091;SDS011;8661;45.700;4.880;2023-04-29T06:15:26;0.00;;;0.00;;
17091;SDS011;8661;45.700;4.880;2023-04-29T06:17:53;0.10;;;0.10;;
17091;SDS011;8661;45.700;4.880;2023-04-29T06:20:20;0.10;;;0.10;;
17091;SDS011;8661;45.700;4.880;2023-04-29T06:22:47;0.10;;;0.10;;
17091;SDS011;8661;45.700;4.880;2023-04-29T06:25:14;0.10;;;0.10;;
17091;SDS011;8661;45.700;4.880;2023-04-29T06:27:41;0.10;;;0.10;;
17091;SDS011;8661;45.700;4.880;2023-04-29T06:30:08;0.00;;;0.00;;
17091;SDS011;8661;45.700;4.880;2023-04-29T06:32:37;0.00;;;0.00;;
17091;SDS011;8661;45.700;4.880;2023-04-29T06:35:04;0.10;;;0.10;;
17091;SDS011;8661;45.700;4.880;2023-04-29T06:37:32;0.03;;;0.03;;
17091;SDS011;8661;45.700;4.880;2023-04-29T06:39:58;0.10;;;0.10;;
17091;SDS011;8661;45.700;4.880;2023-04-29T06:42:25;0.00;;;0.00;;
17091;SDS011;8661;45.700;4.880;2023-04-29T06:44:52;0.10;;;0.10;;
17091;SDS011;8661;45.700;4.880;2023-04-29T06:47:19;0.00;;;0.00;;
17091;SDS011;8661;45.700;4.880;2023-04-29T06:49:48;0.00;;;0.00;;
17091;SDS011;8661;45.700;4.880;2023-04-29T06:52:15;0.10;;;0.10;;
17091;SDS011;8661;45.700;4.880;2023-04-29T06:54:43;0.00;;;0.00;;
17091;SDS011;8661;45.700;4.880;2023-04-29T06:57:10;0.00;;;0.00;;
17091;SDS011;8661;45.700;4.880;2023-04-29T06:59:37;0.03;;;0.03;;
17091;SDS011;8661;45.700;4.880;2023-04-29T07:02:04;0.00;;;0.00;;
17091;SDS011;8661;45.700;4.880;2023-04-29T07:04:33;0.10;;;0.10;;
17091;SDS011;8661;45.700;4.880;2023-04-29T07:07:02;0.17;;;0.17;;
17091;SDS011;8661;45.700;4.880;2023-04-29T07:09:29;0.20;;;0.20;;
17091;SDS011;8661;45.700;4.880;2023-04-29T07:11:56;0.10;;;0.10;;
17091;SDS011;8661;45.700;4.880;2023-04-29T07:14:23;0.00;;;0.00;;
17091;SDS011;8661;45.700;4.880;2023-04-29T07:16:53;0.10;;;0.10;;
17091;SDS011;8661;45.700;4.880;2023-04-29T07:19:20;0.00;;;0.00;;
17091;SDS011;8661;45.700;4.880;2023-04-29T07:21:47;0.00;;;0.00;;
17091;SDS011;8661;45.700;4.880;2023-04-29T07:24:15;0.10;;;0.10;;
17091;SDS011;8661;45.700;4.880;2023-04-29T07:26:42;0.00;;;0.00;;
17091;SDS011;8661;45.700;4.880;2023-04-29T07:29:09;0.10;;;0.10;;
17091;SDS011;8661;45.700;4.880;2023-04-29T07:31:36;0.00;;;0.00;;
17091;SDS011;8661;45.700;4.880;2023-04-29T07:34:06;0.10;;;0.10;;
17091;SDS011;8661;45.700;4.880;2023-04-29T07:36:33;0.00;;;0.00;;
17091;SDS011;8661;45.700;4.880;2023-04-29T07:39:00;0.10;;;0.10;;
17091;SDS011;8661;45.700;4.880;2023-04-29T07:41:28;0.10;;;0.10;;
17091;SDS011;8661;45.700;4.880;2023-04-29T07:43:55;0.10;;;0.10;;
17091;SDS011;8661;45.700;4.880;2023-04-29T07:46:22;0.10;;;0.10;;
17091;SDS011;8661;45.700;4.880;2023-04-29T07:48:49;0.20;;;0.20;;
17091;SDS011;8661;45.700;4.880;2023-04-29T07:51:16;0.30;;;0.20;;
17091;SDS011;8661;45.700;4.880;2023-04-29T07:53:43;0.20;;;0.20;;
17091;SDS011;8661;45.700;4.880;2023-04-29T07:56:10;0.00;;;0.00;;
17091;SDS011;8661;45.700;4.880;2023-04-29T07:58:38;0.00;;;0.00;;
17091;SDS011;8661;45.700;4.880;2023-04-29T08:01:05;0.10;;;0.10;;
17091;SDS011;8661;45.700;4.880;2023-04-29T08:03:33;0.10;;;0.10;;
17091;SDS011;8661;45.700;4.880;2023-04-29T08:06:00;0.10;;;0.10;;
17091;SDS011;8661;45.700;4.880;2023-04-29T08:08:28;0.33;;;0.10;;
17091;SDS011;8661;45.700;4.880;2023-04-29T08:10:55;0.10;;;0.10;;
17091;SDS011;8661;45.700;4.880;2023-04-29T08:13:22;0.00;;;0.00;;
17091;SDS011;8661;45.700;4.880;2023-04-29T08:15:50;0.00;;;0.00;;
17091;SDS011;8661;45.700;4.880;2023-04-29T08:18:17;0.10;;;0.10;;
17091;SDS011;8661;45.700;4.880;2023-04-29T08:20:45;0.00;;;0.00;;
17091;SDS011;8661;45.700;4.880;2023-04-29T08:23:13;0.10;;;0.10;;
17091;SDS011;8661;45.700;4.880;2023-04-29T08:25:40;0.00;;;0.00;;
17091;SDS011;8661;45.700;4.880;2023-04-29T08:28:08;0.03;;;0.03;;
17091;SDS011;8661;45.700;4.880;2023-04-29T08:30:36;0.10;;;0.10;;
17091;SDS011;8661;45.700;4.880;2023-04-29T08:33:05;0.10;;;0.10;;
17091;SDS011;8661;45.700;4.880;2023-04-29T08:35:32;0.30;;;0.17;;
17091;SDS011;8661;45.700;4.880;2023-04-29T08:38:01;0.00;;;0.00;;
17091;SDS011;8661;45.700;4.880;2023-04-29T08:40:30;0.00;;;0.00;;
17091;SDS011;8661;45.700;4.880;2023-04-29T08:42:59;0.00;;;0.00;;
17091;SDS011;8661;45.700;4.880;2023-04-29T08:45:26;0.30;;;0.23;;
17091;SDS011;8661;45.700;4.880;2023-04-29T08:47:54;0.10;;;0.10;;
17091;SDS011;8661;45.700;4.880;2023-04-29T08:50:23;1.37;;;0.40;;
17091;SDS011;8661;45.700;4.880;2023-04-29T08:52:51;0.10;;;0.10;;
17091;SDS011;8661;45.700;4.880;2023-04-29T08:55:18;13.53;;;8.20;;
17091;SDS011;8661;45.700;4.880;2023-04-29T08:57:45;10.87;;;7.20;;
17091;SDS011;8661;45.700;4.880;2023-04-29T09:00:15;9.53;;;7.43;;
17091;SDS011;8661;45.700;4.880;2023-04-29T09:02:44;8.90;;;6.90;;
17091;SDS011;8661;45.700;4.880;2023-04-29T09:05:13;17.00;;;8.40;;
17091;SDS011;8661;45.700;4.880;2023-04-29T09:07:41;11.27;;;7.30;;
17091;SDS011;8661;45.700;4.880;2023-04-29T09:10:09;11.00;;;7.43;;
17091;SDS011;8661;45.700;4.880;2023-04-29T09:12:37;12.10;;;7.80;;
17091;SDS011;8661;45.700;4.880;2023-04-29T09:15:04;15.87;;;10.10;;
17091;SDS011;8661;45.700;4.880;2023-04-29T09:17:38;9.33;;;7.50;;
17091;SDS011;8661;45.700;4.880;2023-04-29T09:22:54;11.40;;;7.67;;
17091;SDS011;8661;45.700;4.880;2023-04-29T09:25:23;11.47;;;7.83;;
17091;SDS011;8661;45.700;4.880;2023-04-29T09:27:51;11.67;;;7.67;;
17091;SDS011;8661;45.700;4.880;2023-04-29T09:30:18;10.17;;;7.30;;
17091;SDS011;8661;45.700;4.880;2023-04-29T09:32:45;13.03;;;8.33;;
17091;SDS011;8661;45.700;4.880;2023-04-29T09:35:30;12.03;;;7.73;;
17091;SDS011;8661;45.700;4.880;2023-04-29T09:38:08;12.20;;;7.63;;
17091;SDS011;8661;45.700;4.880;2023-04-29T09:40:37;11.00;;;7.90;;
17091;SDS011;8661;45.700;4.880;2023-04-29T09:43:10;9.47;;;7.23;;
17091;SDS011;8661;45.700;4.880;2023-04-29T09:45:39;12.43;;;7.60;;
17091;SDS011;8661;45.700;4.880;2023-04-29T09:48:09;11.47;;;8.53;;
17091;SDS011;8661;45.700;4.880;2023-04-29T09:50:37;10.13;;;7.27;;
17091;SDS011;8661;45.700;4.880;2023-04-29T09:53:05;10.07;;;7.10;;
17091;SDS011;8661;45.700;4.880;2023-04-29T09:55:35;10.70;;;7.40;;
17091;SDS011;8661;45.700;4.880;2023-04-29T09:58:02;15.40;;;8.60;;
17091;SDS011;8661;45.700;4.880;2023-04-29T10:00:30;9.03;;;7.10;;
17091;SDS011;8661;45.700;4.880;2023-04-29T10:02:59;12.67;;;7.43;;
17091;SDS011;8661;45.700;4.880;2023-04-29T10:05:27;10.03;;;7.07;;
17091;SDS011;8661;45.700;4.880;2023-04-29T10:07:55;8.97;;;6.40;;
17091;SDS011;8661;45.700;4.880;2023-04-29T10:10:24;6.03;;;5.27;;
17091;SDS011;8661;45.700;4.880;2023-04-29T10:12:54;6.43;;;5.33;;
17091;SDS011;8661;45.700;4.880;2023-04-29T10:15:25;7.30;;;5.73;;
17091;SDS011;8661;45.700;4.880;2023-04-29T10:17:58;8.63;;;5.77;;
17091;SDS011;8661;45.700;4.880;2023-04-29T10:20:34;9.37;;;5.23;;
17091;SDS011;8661;45.700;4.880;2023-04-29T10:23:05;4.93;;;4.43;;
17091;SDS011;8661;45.700;4.880;2023-04-29T10:25:33;4.90;;;4.40;;
17091;SDS011;8661;45.700;4.880;2023-04-29T10:28:04;7.43;;;4.83;;
17091;SDS011;8661;45.700;4.880;2023-04-29T10:30:34;7.30;;;4.67;;
17091;SDS011;8661;45.700;4.880;2023-04-29T10:33:02;6.70;;;4.47;;
17091;SDS011;8661;45.700;4.880;2023-04-29T10:35:30;4.30;;;3.90;;
17091;SDS011;8661;45.700;4.880;2023-04-29T10:37:57;5.27;;;3.67;;
17091;SDS011;8661;45.700;4.880;2023-04-29T10:40:27;4.10;;;3.70;;
17091;SDS011;8661;45.700;4.880;2023-04-29T10:43:01;3.77;;;3.47;;
17091;SDS011;8661;45.700;4.880;2023-04-29T10:45:30;5.90;;;4.30;;
17091;SDS011;8661;45.700;4.880;2023-04-29T10:48:09;7.73;;;3.77;;
17091;SDS011;8661;45.700;4.880;2023-04-29T10:53:29;4.67;;;3.17;;
17091;SDS011;8661;45.700;4.880;2023-04-29T10:55:57;6.20;;;3.80;;
17091;SDS011;8661;45.700;4.880;2023-04-29T10:58:36;6.97;;;3.93;;
17091;SDS011;8661;45.700;4.880;2023-04-29T11:01:04;5.83;;;3.33;;
17091;SDS011;8661;45.700;4.880;2023-04-29T11:06:37;7.10;;;3.87;;
17091;SDS011;8661;45.700;4.880;2023-04-29T11:09:07;5.90;;;3.83;;
17091;SDS011;8661;45.700;4.880;2023-04-29T11:11:42;9.43;;;4.17;;
17091;SDS011;8661;45.700;4.880;2023-04-29T11:14:11;6.20;;;3.63;;
17091;SDS011;8661;45.700;4.880;2023-04-29T11:16:45;6.23;;;4.20;;
17091;SDS011;8661;45.700;4.880;2023-04-29T11:19:14;6.73;;;5.50;;
17091;SDS011;8661;45.700;4.880;2023-04-29T11:21:42;6.53;;;5.23;;
17091;SDS011;8661;45.700;4.880;2023-04-29T11:24:10;10.57;;;7.77;;
17091;SDS011;8661;45.700;4.880;2023-04-29T11:26:39;9.43;;;6.20;;
17091;SDS011;8661;45.700;4.880;2023-04-29T11:29:07;6.27;;;4.23;;
17091;SDS011;8661;45.700;4.880;2023-04-29T11:31:36;3.63;;;3.07;;
17091;SDS011;8661;45.700;4.880;2023-04-29T11:34:04;4.23;;;3.40;;
17091;SDS011;8661;45.700;4.880;2023-04-29T11:36:32;7.77;;;3.80;;
17091;SDS011;8661;45.700;4.880;2023-04-29T11:39:00;3.93;;;3.53;;
17091;SDS011;8661;45.700;4.880;2023-04-29T11:41:27;4.97;;;3.53;;
17091;SDS011;8661;45.700;4.880;2023-04-29T11:43:55;5.33;;;3.70;;
17091;SDS011;8661;45.700;4.880;2023-04-29T11:46:23;3.87;;;3.43;;
17091;SDS011;8661;45.700;4.880;2023-04-29T11:48:51;4.97;;;3.43;;
17091;SDS011;8661;45.700;4.880;2023-04-29T11:51:18;6.73;;;4.23;;
17091;SDS011;8661;45.700;4.880;2023-04-29T11:53:46;8.63;;;4.23;;
17091;SDS011;8661;45.700;4.880;2023-04-29T11:56:13;5.03;;;4.07;;
17091;SDS011;8661;45.700;4.880;2023-04-29T11:58:41;3.83;;;3.47;;
17091;SDS011;8661;45.700;4.880;2023-04-29T12:01:08;8.07;;;4.27;;
17091;SDS011;8661;45.700;4.880;2023-04-29T12:03:35;5.03;;;4.43;;
17091;SDS011;8661;45.700;4.880;2023-04-29T12:06:04;5.90;;;4.73;;
17091;SDS011;8661;45.700;4.880;2023-04-29T12:08:31;5.40;;;4.27;;
17091;SDS011;8661;45.700;4.880;2023-04-29T12:10:59;4.97;;;3.90;;
17091;SDS011;8661;45.700;4.880;2023-04-29T12:13:26;6.67;;;4.97;;
17091;SDS011;8661;45.700;4.880;2023-04-29T12:15:54;6.67;;;4.80;;
17091;SDS011;8661;45.700;4.880;2023-04-29T12:18:22;6.20;;;4.50;;
17091;SDS011;8661;45.700;4.880;2023-04-29T12:20:51;5.30;;;4.80;;
17091;SDS011;8661;45.700;4.880;2023-04-29T12:23:21;5.67;;;4.20;;
17091;SDS011;8661;45.700;4.880;2023-04-29T12:25:51;5.63;;;4.10;;
17091;SDS011;8661;45.700;4.880;2023-04-29T12:28:20;4.67;;;4.00;;
17091;SDS011;8661;45.700;4.880;2023-04-29T12:30:47;9.47;;;4.70;;
17091;SDS011;8661;45.700;4.880;2023-04-29T12:33:17;8.33;;;4.73;;
17091;SDS011;8661;45.700;4.880;2023-04-29T12:35:46;7.27;;;4.30;;
17091;SDS011;8661;45.700;4.880;2023-04-29T12:38:14;5.47;;;3.90;;
17091;SDS011;8661;45.700;4.880;2023-04-29T12:40:47;6.33;;;4.30;;
17091;SDS011;8661;45.700;4.880;2023-04-29T12:43:15;3.63;;;3.33;;
17091;SDS011;8661;45.700;4.880;2023-04-29T12:45:43;5.73;;;4.27;;
17091;SDS011;8661;45.700;4.880;2023-04-29T12:48:10;5.03;;;4.47;;
17091;SDS011;8661;45.700;4.880;2023-04-29T12:50:38;6.57;;;4.83;;
17091;SDS011;8661;45.700;4.880;2023-04-29T12:53:05;6.17;;;4.37;;
17091;SDS011;8661;45.700;4.880;2023-04-29T12:55:33;6.57;;;4.43;;
17091;SDS011;8661;45.700;4.880;2023-04-29T12:58:03;6.77;;;3.90;;
17091;SDS011;8661;45.700;4.880;2023-04-29T13:00:31;3.73;;;3.20;;
17091;SDS011;8661;45.700;4.880;2023-04-29T13:03:01;3.53;;;3.20;;
17091;SDS011;8661;45.700;4.880;2023-04-29T13:05:29;6.90;;;3.20;;
17091;SDS011;8661;45.700;4.880;2023-04-29T13:07:56;5.13;;;3.20;;
17091;SDS011;8661;45.700;4.880;2023-04-29T13:10:23;3.60;;;2.53;;
17091;SDS011;8661;45.700;4.880;2023-04-29T13:12:50;4.97;;;2.70;;
17091;SDS011;8661;45.700;4.880;2023-04-29T13:15:18;4.07;;;2.60;;
17091;SDS011;8661;45.700;4.880;2023-04-29T13:17:45;3.00;;;2.70;;
17091;SDS011;8661;45.700;4.880;2023-04-29T13:20:12;3.03;;;2.73;;
17091;SDS011;8661;45.700;4.880;2023-04-29T13:22:39;2.53;;;2.33;;
17091;SDS011;8661;45.700;4.880;2023-04-29T13:25:07;4.77;;;2.87;;
17091;SDS011;8661;45.700;4.880;2023-04-29T13:27:35;3.23;;;2.93;;
17091;SDS011;8661;45.700;4.880;2023-04-29T13:30:03;3.83;;;2.80;;
17091;SDS011;8661;45.700;4.880;2023-04-29T13:32:31;2.50;;;2.30;;
17091;SDS011;8661;45.700;4.880;2023-04-29T13:34:58;2.57;;;2.37;;
17091;SDS011;8661;45.700;4.880;2023-04-29T13:37:25;2.40;;;2.20;;
17091;SDS011;8661;45.700;4.880;2023-04-29T13:39:52;2.97;;;2.67;;
17091;SDS011;8661;45.700;4.880;2023-04-29T13:42:19;2.70;;;2.43;;
17091;SDS011;8661;45.700;4.880;2023-04-29T13:44:46;2.87;;;2.40;;
17091;SDS011;8661;45.700;4.880;2023-04-29T13:47:15;2.40;;;1.90;;
17091;SDS011;8661;45.700;4.880;2023-04-29T13:49:43;2.67;;;1.93;;
17091;SDS011;8661;45.700;4.880;2023-04-29T13:52:10;4.00;;;2.50;;
17091;SDS011;8661;45.700;4.880;2023-04-29T13:54:38;2.80;;;2.53;;
17091;SDS011;8661;45.700;4.880;2023-04-29T13:57:05;2.57;;;2.33;;
17091;SDS011;8661;45.700;4.880;2023-04-29T13:59:34;3.00;;;2.67;;
17091;SDS011;8661;45.700;4.880;2023-04-29T14:02:01;3.43;;;2.60;;
17091;SDS011;8661;45.700;4.880;2023-04-29T14:04:29;4.73;;;2.90;;
17091;SDS011;8661;45.700;4.880;2023-04-29T14:06:57;3.03;;;2.30;;
17091;SDS011;8661;45.700;4.880;2023-04-29T14:09:24;2.53;;;2.30;;
17091;SDS011;8661;45.700;4.880;2023-04-29T14:11:51;8.57;;;3.57;;
17091;SDS011;8661;45.700;4.880;2023-04-29T14:14:18;3.50;;;2.13;;
17091;SDS011;8661;45.700;4.880;2023-04-29T14:16:45;4.10;;;2.30;;
17091;SDS011;8661;45.700;4.880;2023-04-29T14:19:15;2.47;;;2.27;;
17091;SDS011;8661;45.700;4.880;2023-04-29T14:21:41;4.30;;;1.93;;
17091;SDS011;8661;45.700;4.880;2023-04-29T14:24:10;3.07;;;2.20;;
17091;SDS011;8661;45.700;4.880;2023-04-29T14:26:37;4.57;;;2.30;;
17091;SDS011;8661;45.700;4.880;2023-04-29T14:29:05;3.57;;;2.37;;
17091;SDS011;8661;45.700;4.880;2023-04-29T14:31:33;3.00;;;2.50;;
17091;SDS011;8661;45.700;4.880;2023-04-29T14:34:02;3.43;;;2.70;;
17091;SDS011;8661;45.700;4.880;2023-04-29T14:36:29;3.77;;;2.70;;
17091;SDS011;8661;45.700;4.880;2023-04-29T14:38:57;7.73;;;2.10;;
17091;SDS011;8661;45.700;4.880;2023-04-29T14:41:26;4.17;;;2.50;;
17091;SDS011;8661;45.700;4.880;2023-04-29T14:43:53;3.27;;;2.10;;
17091;SDS011;8661;45.700;4.880;2023-04-29T14:46:20;2.30;;;2.10;;
17091;SDS011;8661;45.700;4.880;2023-04-29T14:48:47;3.83;;;2.77;;
17091;SDS011;8661;45.700;4.880;2023-04-29T14:51:14;4.63;;;2.63;;
17091;SDS011;8661;45.700;4.880;2023-04-29T14:53:41;2.60;;;2.40;;
17091;SDS011;8661;45.700;4.880;2023-04-29T14:56:08;2.53;;;2.33;;
17091;SDS011;8661;45.700;4.880;2023-04-29T14:58:36;3.57;;;2.47;;
17091;SDS011;8661;45.700;4.880;2023-04-29T15:01:03;5.97;;;2.47;;
17091;SDS011;8661;45.700;4.880;2023-04-29T15:03:30;3.83;;;2.60;;
17091;SDS011;8661;45.700;4.880;2023-04-29T15:05:57;3.70;;;2.70;;
17091;SDS011;8661;45.700;4.880;2023-04-29T15:08:27;3.27;;;2.50;;
17091;SDS011;8661;45.700;4.880;2023-04-29T15:10:54;3.37;;;2.40;;
17091;SDS011;8661;45.700;4.880;2023-04-29T15:13:21;2.50;;;2.10;;